createdAt,value
2019-01-10T00:00:56.496Z,0.00
2019-01-10T00:01:56.644Z,0.00
2019-01-10T00:02:56.774Z,0.00
2019-01-10T00:03:56.916Z,0.00
2019-01-10T00:04:57.167Z,0.00
2019-01-10T00:05:57.201Z,0.00
2019-01-10T00:06:57.330Z,0.00
2019-01-10T00:07:57.487Z,0.00
2019-01-10T00:08:57.623Z,0.00
2019-01-10T00:09:57.766Z,0.00
2019-01-10T00:10:57.918Z,0.00
2019-01-10T00:11:58.032Z,0.00
2019-01-10T00:12:58.267Z,0.00
2019-01-10T00:13:58.306Z,0.00
2019-01-10T00:14:58.449Z,0.00
2019-01-10T00:15:58.598Z,0.00
2019-01-10T00:16:58.721Z,0.00
2019-01-10T00:17:58.860Z,0.00
2019-01-10T00:18:58.979Z,0.00
2019-01-10T00:19:59.155Z,0.00
2019-01-10T00:20:59.362Z,0.00
2019-01-10T00:21:59.413Z,0.00
2019-01-10T00:22:59.552Z,0.00
2019-01-10T00:23:59.659Z,0.00
2019-01-10T00:24:59.795Z,0.00
2019-01-10T00:26:00.201Z,0.00
2019-01-10T00:27:00.108Z,0.00
2019-01-10T00:28:00.238Z,0.00
2019-01-10T00:29:00.420Z,0.00
2019-01-10T00:30:00.497Z,0.00
2019-01-10T00:31:00.665Z,0.00
2019-01-10T00:32:00.792Z,0.00
2019-01-10T00:33:00.937Z,0.00
2019-01-10T00:34:01.059Z,0.00
2019-01-10T00:35:01.222Z,0.00
2019-01-10T00:36:01.340Z,0.00
2019-01-10T00:37:01.501Z,0.00
2019-01-10T00:38:01.763Z,0.00
2019-01-10T00:39:01.766Z,0.00
2019-01-10T00:40:01.912Z,0.00
2019-01-10T00:41:02.056Z,0.00
2019-01-10T00:42:02.180Z,0.00
2019-01-10T00:43:02.335Z,0.00
2019-01-10T00:44:02.457Z,0.00
2019-01-10T00:45:02.602Z,0.00
2019-01-10T00:46:02.858Z,0.00
2019-01-10T00:47:02.874Z,0.00
2019-01-10T00:48:03.030Z,0.00
2019-01-10T00:49:03.147Z,0.00
2019-01-10T00:50:03.292Z,0.00
2019-01-10T00:51:03.445Z,0.00
2019-01-10T00:52:03.550Z,0.00
2019-01-10T00:53:03.724Z,0.00
2019-01-10T00:54:03.898Z,0.00
2019-01-10T00:55:03.974Z,0.00
2019-01-10T00:56:04.127Z,0.00
2019-01-10T00:57:04.229Z,0.00
2019-01-10T00:58:07.238Z,0.00
2019-01-10T00:59:04.525Z,0.00
2019-01-10T01:00:04.687Z,0.00
2019-01-10T01:01:04.817Z,0.00
2019-01-10T01:02:04.977Z,0.00
2019-01-10T01:03:05.066Z,0.00
2019-01-10T01:04:05.186Z,0.00
2019-01-10T01:05:05.346Z,0.00
2019-01-10T01:06:05.490Z,0.00
2019-01-10T01:07:05.617Z,0.00
2019-01-10T01:08:05.778Z,0.00
2019-01-10T01:09:05.925Z,0.00
2019-01-10T01:10:06.075Z,0.00
2019-01-10T01:11:06.249Z,0.00
2019-01-10T01:12:06.313Z,0.00
2019-01-10T01:13:06.476Z,0.00
2019-01-10T01:14:06.587Z,0.00
2019-01-10T01:15:06.712Z,0.00
2019-01-10T01:16:06.986Z,0.00
2019-01-10T01:17:07.006Z,0.00
2019-01-10T01:18:07.155Z,0.00
2019-01-10T01:19:07.427Z,0.00
2019-01-10T01:20:07.522Z,0.00
2019-01-10T01:21:07.616Z,0.00
2019-01-10T01:22:07.713Z,0.00
2019-01-10T01:23:07.872Z,0.00
2019-01-10T01:24:08.003Z,0.00
2019-01-10T01:25:08.138Z,0.00
2019-01-10T01:26:08.288Z,0.00
2019-01-10T01:27:08.506Z,0.00
2019-01-10T01:28:08.589Z,0.00
2019-01-10T01:29:08.722Z,0.00
2019-01-10T01:30:08.841Z,0.00
2019-01-10T01:31:08.982Z,0.00
2019-01-10T01:32:35.141Z,0.00
2019-01-10T01:33:09.282Z,0.00
2019-01-10T01:34:09.413Z,0.00
2019-01-10T01:35:09.599Z,0.00
2019-01-10T01:37:23.773Z,0.00
2019-01-10T01:38:22.019Z,0.00
2019-01-10T01:39:22.164Z,0.00
2019-01-10T01:40:22.300Z,0.00
2019-01-10T01:41:22.466Z,0.00
2019-01-10T01:42:22.558Z,0.00
2019-01-10T01:43:22.739Z,0.00
2019-01-10T01:44:22.938Z,0.00
2019-01-10T01:45:22.972Z,0.00
2019-01-10T01:46:23.112Z,0.00
2019-01-10T01:47:23.256Z,0.00
2019-01-10T01:48:23.437Z,0.00
2019-01-10T01:49:23.585Z,0.00
2019-01-10T01:50:23.704Z,0.00
2019-01-10T01:51:23.842Z,0.00
2019-01-10T01:52:24.056Z,0.00
2019-01-10T01:53:24.123Z,0.00
2019-01-10T01:54:24.273Z,0.00
2019-01-10T01:55:24.397Z,0.00
2019-01-10T01:56:24.540Z,0.00
2019-01-10T01:57:24.702Z,0.00
2019-01-10T01:58:24.844Z,0.00
2019-01-10T01:59:24.963Z,0.00
2019-01-10T02:00:25.151Z,0.00
2019-01-10T02:01:25.303Z,0.00
2019-01-10T02:02:25.412Z,0.00
2019-01-10T02:03:25.563Z,0.00
2019-01-10T02:04:25.898Z,0.00
2019-01-10T02:05:25.794Z,0.00
2019-01-10T02:06:25.949Z,0.00
2019-01-10T02:07:26.106Z,0.00
2019-01-10T02:08:26.258Z,0.00
2019-01-10T02:09:26.510Z,0.00
2019-01-10T02:10:26.502Z,0.00
2019-01-10T02:11:26.632Z,0.00
2019-01-10T02:12:26.789Z,0.00
2019-01-10T02:13:26.938Z,0.00
2019-01-10T02:14:27.081Z,0.00
2019-01-10T02:15:27.255Z,0.00
2019-01-10T02:16:27.333Z,0.00
2019-01-10T02:17:27.583Z,0.00
2019-01-10T02:18:27.636Z,0.00
2019-01-10T02:19:27.771Z,0.00
2019-01-10T02:20:27.878Z,0.00
2019-01-10T02:21:28.014Z,0.00
2019-01-10T02:22:28.184Z,0.00
2019-01-10T02:23:28.334Z,0.00
2019-01-10T02:24:28.463Z,0.00
2019-01-10T02:25:28.618Z,0.00
2019-01-10T02:26:28.687Z,0.00
2019-01-10T02:27:28.868Z,0.00
2019-01-10T02:28:29.034Z,0.00
2019-01-10T02:29:29.155Z,0.00
2019-01-10T02:30:29.276Z,0.00
2019-01-10T02:31:29.421Z,0.00
2019-01-10T02:32:29.585Z,0.00
2019-01-10T02:33:29.738Z,0.00
2019-01-10T02:34:29.929Z,0.00
2019-01-10T02:35:29.982Z,0.00
2019-01-10T02:36:30.123Z,0.00
2019-01-10T02:37:30.269Z,0.00
2019-01-10T02:38:30.404Z,0.00
2019-01-10T02:39:30.550Z,0.00
2019-01-10T02:40:30.677Z,0.00
2019-01-10T02:41:30.824Z,0.00
2019-01-10T02:42:31.052Z,0.00
2019-01-10T02:43:31.101Z,0.00
2019-01-10T02:44:31.227Z,0.00
2019-01-10T02:45:31.365Z,0.00
2019-01-10T02:46:31.497Z,0.00
2019-01-10T02:47:31.652Z,0.00
2019-01-10T02:48:31.816Z,0.00
2019-01-10T02:49:31.923Z,0.00
2019-01-10T02:50:32.192Z,0.00
2019-01-10T02:51:32.200Z,0.00
2019-01-10T02:52:32.359Z,0.00
2019-01-10T02:53:32.480Z,0.00
2019-01-10T02:54:32.627Z,0.00
2019-01-10T02:55:32.773Z,0.00
2019-01-10T02:56:32.910Z,0.00
2019-01-10T02:57:33.064Z,0.00
2019-01-10T02:58:33.246Z,0.00
2019-01-10T02:59:33.312Z,0.00
2019-01-10T03:00:33.447Z,0.00
2019-01-10T03:01:33.589Z,0.00
2019-01-10T03:02:33.743Z,0.00
2019-01-10T03:03:33.869Z,0.00
2019-01-10T03:04:34.010Z,0.00
2019-01-10T03:05:34.158Z,0.00
2019-01-10T03:06:34.297Z,0.00
2019-01-10T03:07:34.476Z,0.00
2019-01-10T03:08:34.550Z,0.00
2019-01-10T03:09:34.710Z,0.00
2019-01-10T03:10:34.850Z,0.00
2019-01-10T03:11:34.955Z,0.00
2019-01-10T03:12:35.126Z,0.00
2019-01-10T03:13:36.993Z,0.00
2019-01-10T03:14:35.444Z,0.00
2019-01-10T03:15:35.661Z,0.00
2019-01-10T03:16:35.661Z,0.00
2019-01-10T03:17:35.832Z,0.00
2019-01-10T03:18:35.960Z,0.00
2019-01-10T03:19:36.125Z,0.00
2019-01-10T03:20:36.318Z,0.00
2019-01-10T03:21:36.368Z,0.00
2019-01-10T03:22:36.507Z,0.00
2019-01-10T03:23:36.758Z,0.00
2019-01-10T03:24:36.809Z,0.00
2019-01-10T03:25:36.945Z,0.00
2019-01-10T03:26:37.065Z,0.00
2019-01-10T03:27:37.201Z,0.00
2019-01-10T03:28:37.347Z,0.00
2019-01-10T03:29:37.507Z,0.00
2019-01-10T03:30:37.643Z,0.00
2019-01-10T03:31:37.816Z,0.00
2019-01-10T03:32:37.886Z,0.00
2019-01-10T03:33:38.012Z,0.00
2019-01-10T03:34:38.187Z,0.00
2019-01-10T03:35:38.320Z,0.00
2019-01-10T03:36:38.439Z,0.00
2019-01-10T03:37:38.601Z,0.00
2019-01-10T03:38:38.722Z,0.00
2019-01-10T03:39:38.945Z,0.00
2019-01-10T03:40:39.199Z,0.00
2019-01-10T03:41:39.111Z,0.00
2019-01-10T03:42:39.272Z,0.00
2019-01-10T03:43:46.768Z,0.00
2019-01-10T03:44:40.572Z,0.00
2019-01-10T03:45:39.678Z,0.00
2019-01-10T03:46:39.813Z,0.00
2019-01-10T03:47:40.005Z,0.00
2019-01-10T03:48:40.209Z,0.00
2019-01-10T03:49:40.604Z,0.00
2019-01-10T03:50:40.392Z,0.00
2019-01-10T03:51:40.522Z,0.00
2019-01-10T03:52:40.675Z,0.00
2019-01-10T03:53:40.804Z,0.00
2019-01-10T03:54:40.941Z,0.00
2019-01-10T03:55:41.105Z,0.00
2019-01-10T03:56:41.320Z,0.00
2019-01-10T03:57:41.372Z,0.00
2019-01-10T03:58:41.512Z,0.00
2019-01-10T03:59:41.645Z,0.00
2019-01-10T04:00:41.806Z,0.00
2019-01-10T04:01:41.910Z,0.00
2019-01-10T04:02:42.184Z,0.00
2019-01-10T04:03:42.224Z,0.00
2019-01-10T04:04:42.432Z,0.00
2019-01-10T04:05:42.481Z,0.00
2019-01-10T04:06:42.597Z,0.00
2019-01-10T04:07:42.739Z,0.00
2019-01-10T04:08:42.917Z,0.00
2019-01-10T04:09:43.062Z,0.00
2019-01-10T04:10:43.191Z,0.00
2019-01-10T04:11:43.315Z,0.00
2019-01-10T04:12:43.525Z,0.00
2019-01-10T04:13:43.589Z,0.00
2019-01-10T04:14:43.752Z,0.00
2019-01-10T04:15:43.860Z,0.00
2019-01-10T04:16:43.990Z,0.00
2019-01-10T04:17:44.137Z,0.00
2019-01-10T04:18:44.281Z,0.00
2019-01-10T04:19:44.421Z,0.00
2019-01-10T04:20:44.617Z,0.00
2019-01-10T04:21:44.790Z,0.00
2019-01-10T04:22:44.874Z,0.00
2019-01-10T04:23:44.987Z,0.00
2019-01-10T04:24:45.151Z,0.00
2019-01-10T04:25:45.297Z,0.00
2019-01-10T04:26:45.408Z,0.00
2019-01-10T04:27:45.555Z,0.00
2019-01-10T04:28:45.722Z,0.00
2019-01-10T04:29:45.965Z,0.00
2019-01-10T04:30:46.375Z,0.00
2019-01-10T04:31:46.095Z,0.00
2019-01-10T04:32:46.242Z,0.00
2019-01-10T04:33:46.395Z,0.00
2019-01-10T04:34:46.524Z,0.00
2019-01-10T04:35:46.687Z,0.00
2019-01-10T04:36:46.819Z,0.00
2019-01-10T04:37:47.058Z,0.00
2019-01-10T04:38:47.102Z,0.00
2019-01-10T04:39:47.207Z,0.00
2019-01-10T04:40:47.384Z,0.00
2019-01-10T04:41:47.500Z,0.00
2019-01-10T04:42:47.647Z,0.00
2019-01-10T04:43:47.796Z,0.00
2019-01-10T04:44:47.913Z,0.00
2019-01-10T04:45:48.328Z,0.00
2019-01-10T04:46:48.161Z,0.00
2019-01-10T04:47:48.318Z,0.00
2019-01-10T04:48:48.482Z,0.00
2019-01-10T04:49:48.595Z,0.00
2019-01-10T04:50:48.752Z,0.00
2019-01-10T04:51:48.848Z,0.00
2019-01-10T04:52:48.985Z,0.00
2019-01-10T04:53:49.220Z,0.00
2019-01-10T04:54:49.278Z,0.00
2019-01-10T04:55:49.462Z,0.00
2019-01-10T04:56:49.558Z,0.00
2019-01-10T04:57:49.679Z,0.00
2019-01-10T04:58:49.853Z,0.00
2019-01-10T04:59:49.969Z,0.00
2019-01-10T05:00:50.146Z,0.00
2019-01-10T05:01:50.266Z,0.00
2019-01-10T05:02:50.452Z,0.00
2019-01-10T05:03:50.534Z,0.00
2019-01-10T05:04:50.655Z,0.00
2019-01-10T05:05:51.198Z,0.00
2019-01-10T05:06:50.930Z,0.00
2019-01-10T05:07:51.069Z,0.00
2019-01-10T05:08:51.207Z,0.00
2019-01-10T05:09:51.337Z,0.00
2019-01-10T05:10:51.677Z,0.00
2019-01-10T05:11:51.777Z,0.00
2019-01-10T05:12:51.787Z,0.00
2019-01-10T05:13:51.944Z,0.00
2019-01-10T05:14:52.079Z,0.00
2019-01-10T05:15:52.236Z,0.00
2019-01-10T05:16:52.367Z,0.00
2019-01-10T05:17:52.738Z,0.00
2019-01-10T05:18:52.719Z,0.00
2019-01-10T05:19:52.746Z,0.00
2019-01-10T05:20:52.927Z,0.00
2019-01-10T05:21:53.058Z,0.00
2019-01-10T05:22:53.180Z,0.00
2019-01-10T05:23:53.333Z,0.00
2019-01-10T05:24:53.455Z,0.00
2019-01-10T05:25:53.602Z,0.00
2019-01-10T05:26:53.807Z,0.00
2019-01-10T05:27:53.850Z,0.00
2019-01-10T05:28:54.003Z,0.00
2019-01-10T05:29:54.126Z,0.00
2019-01-10T05:30:54.279Z,0.00
2019-01-10T05:31:54.411Z,0.00
2019-01-10T05:32:54.549Z,0.00
2019-01-10T05:33:54.702Z,0.00
2019-01-10T05:34:54.853Z,0.00
2019-01-10T05:35:55.013Z,0.00
2019-01-10T05:36:55.115Z,0.00
2019-01-10T05:37:55.252Z,0.00
2019-01-10T05:38:55.406Z,0.00
2019-01-10T05:39:55.529Z,0.00
2019-01-10T05:40:55.688Z,0.00
2019-01-10T05:41:55.823Z,0.00
2019-01-10T05:42:55.936Z,0.00
2019-01-10T05:43:56.217Z,0.00
2019-01-10T05:44:56.220Z,0.00
2019-01-10T05:45:56.376Z,0.00
2019-01-10T05:46:56.491Z,0.00
2019-01-10T05:47:56.655Z,0.00
2019-01-10T05:48:56.801Z,0.00
2019-01-10T05:49:56.906Z,0.00
2019-01-10T05:50:57.055Z,0.00
2019-01-10T05:51:57.305Z,0.00
2019-01-10T05:52:57.304Z,0.00
2019-01-10T05:53:57.474Z,0.00
2019-01-10T05:54:57.590Z,0.00
2019-01-10T05:55:57.730Z,0.00
2019-01-10T05:56:57.884Z,0.00
2019-01-10T05:57:58.001Z,0.00
2019-01-10T05:58:58.156Z,0.00
2019-01-10T05:59:58.331Z,0.00
2019-01-10T06:00:58.412Z,0.00
2019-01-10T06:01:58.577Z,0.00
2019-01-10T06:02:58.701Z,0.00
2019-01-10T06:03:58.879Z,0.00
2019-01-10T06:04:58.949Z,0.00
2019-01-10T06:05:59.105Z,0.00
2019-01-10T06:06:59.257Z,0.00
2019-01-10T06:07:59.449Z,0.00
2019-01-10T06:08:59.604Z,0.00
2019-01-10T06:09:59.651Z,0.00
2019-01-10T06:10:59.827Z,0.00
2019-01-10T06:11:59.973Z,0.00
2019-01-10T06:13:00.095Z,0.00
2019-01-10T06:14:00.229Z,0.00
2019-01-10T06:15:00.376Z,0.00
2019-01-10T06:16:00.541Z,0.00
2019-01-10T06:17:24.442Z,0.00
2019-01-10T06:18:00.790Z,0.00
2019-01-10T06:19:00.925Z,0.00
2019-01-10T06:20:01.076Z,0.00
2019-01-10T06:21:01.227Z,0.00
2019-01-10T06:22:01.376Z,0.00
2019-01-10T06:23:01.483Z,0.00
2019-01-10T06:24:01.620Z,0.00
2019-01-10T06:25:01.902Z,0.00
2019-01-10T06:26:01.905Z,0.00
2019-01-10T06:27:02.061Z,0.00
2019-01-10T06:28:02.178Z,0.00
2019-01-10T06:29:02.414Z,0.00
2019-01-10T06:30:02.461Z,0.00
2019-01-10T06:31:02.619Z,0.00
2019-01-10T06:32:02.727Z,0.00
2019-01-10T06:33:02.923Z,0.00
2019-01-10T06:34:03.001Z,0.00
2019-01-10T06:35:03.153Z,0.00
2019-01-10T06:36:03.304Z,0.00
2019-01-10T06:37:03.528Z,0.00
2019-01-10T06:38:03.541Z,0.00
2019-01-10T06:39:03.693Z,0.00
2019-01-10T06:40:03.838Z,0.00
2019-01-10T06:41:04.007Z,0.00
2019-01-10T06:42:04.095Z,0.00
2019-01-10T06:43:04.212Z,0.00
2019-01-10T06:44:04.370Z,0.00
2019-01-10T06:45:04.546Z,0.00
2019-01-10T06:46:04.673Z,0.00
2019-01-10T06:47:04.817Z,0.00
2019-01-10T06:48:04.941Z,0.00
2019-01-10T06:49:05.112Z,0.00
2019-01-10T06:50:05.298Z,0.00
2019-01-10T06:51:05.344Z,0.00
2019-01-10T06:52:05.504Z,0.00
2019-01-10T06:53:05.625Z,0.00
2019-01-10T06:54:05.747Z,0.00
2019-01-10T06:55:05.923Z,0.00
2019-01-10T06:56:06.051Z,0.00
2019-01-10T06:57:06.432Z,0.00
2019-01-10T06:58:06.563Z,0.00
2019-01-10T06:59:06.445Z,0.00
2019-01-10T07:00:06.619Z,0.00
2019-01-10T07:01:06.756Z,0.00
2019-01-10T07:02:07.059Z,0.00
2019-01-10T07:03:07.025Z,0.00
2019-01-10T07:04:07.161Z,0.00
2019-01-10T07:05:07.342Z,0.00
2019-01-10T07:06:07.524Z,0.00
2019-01-10T07:07:07.576Z,0.00
2019-01-10T07:08:07.699Z,0.00
2019-01-10T07:09:07.843Z,0.00
2019-01-10T07:10:07.994Z,5.62
2019-01-10T07:11:08.122Z,5.62
2019-01-10T07:12:08.268Z,5.62
2019-01-10T07:13:08.411Z,5.62
2019-01-10T07:14:08.600Z,5.62
2019-01-10T07:15:08.672Z,5.62
2019-01-10T07:16:08.792Z,5.62
2019-01-10T07:17:08.915Z,11.25
2019-01-10T07:18:09.070Z,11.25
2019-01-10T07:19:09.203Z,11.25
2019-01-10T07:20:09.369Z,11.25
2019-01-10T07:21:09.480Z,11.25
2019-01-10T07:22:09.675Z,11.25
2019-01-10T07:23:09.806Z,11.25
2019-01-10T07:24:09.930Z,16.88
2019-01-10T07:25:10.117Z,16.88
2019-01-10T07:26:10.194Z,11.25
2019-01-10T07:27:10.327Z,11.25
2019-01-10T07:28:10.482Z,11.25
2019-01-10T07:29:10.637Z,16.88
2019-01-10T07:30:10.825Z,16.88
2019-01-10T07:31:11.040Z,16.88
2019-01-10T07:32:11.032Z,11.25
2019-01-10T07:33:49.019Z,16.88
2019-01-10T07:34:12.341Z,16.88
2019-01-10T07:35:11.490Z,11.25
2019-01-10T07:36:11.622Z,16.88
2019-01-10T07:37:12.958Z,16.88
2019-01-10T07:38:11.902Z,16.88
2019-01-10T07:39:12.139Z,16.88
2019-01-10T07:40:12.197Z,16.88
2019-01-10T07:41:12.329Z,16.88
2019-01-10T07:42:12.456Z,16.88
2019-01-10T07:43:12.597Z,16.88
2019-01-10T07:44:12.717Z,16.88
2019-01-10T07:45:12.973Z,16.88
2019-01-10T07:46:13.021Z,16.88
2019-01-10T07:47:13.185Z,16.88
2019-01-10T07:48:13.285Z,22.50
2019-01-10T07:49:13.396Z,22.50
2019-01-10T07:50:13.568Z,28.12
2019-01-10T07:51:13.713Z,33.75
2019-01-10T07:52:13.842Z,33.75
2019-01-10T07:53:13.996Z,28.12
2019-01-10T07:54:14.118Z,33.75
2019-01-10T07:55:14.333Z,33.75
2019-01-10T07:56:14.380Z,33.75
2019-01-10T07:57:14.524Z,39.38
2019-01-10T07:58:14.671Z,39.38
2019-01-10T07:59:14.800Z,39.38
2019-01-10T08:00:14.958Z,39.38
2019-01-10T08:01:15.088Z,45.00
2019-01-10T08:02:15.238Z,45.00
2019-01-10T08:03:15.401Z,45.00
2019-01-10T08:04:15.582Z,45.00
2019-01-10T08:05:15.664Z,45.00
2019-01-10T08:06:15.766Z,56.25
2019-01-10T08:07:15.927Z,50.62
2019-01-10T08:08:16.071Z,39.38
2019-01-10T08:09:16.192Z,45.00
2019-01-10T08:10:16.347Z,56.25
2019-01-10T08:11:16.484Z,56.25
2019-01-10T08:12:16.733Z,45.00
2019-01-10T08:13:16.762Z,39.38
2019-01-10T08:14:16.882Z,45.00
2019-01-10T08:15:17.043Z,45.00
2019-01-10T08:16:17.172Z,50.62
2019-01-10T08:17:17.291Z,50.62
2019-01-10T08:18:17.460Z,50.62
2019-01-10T08:19:17.583Z,56.25
2019-01-10T08:20:17.910Z,61.88
2019-01-10T08:21:17.855Z,61.88
2019-01-10T08:22:17.970Z,67.50
2019-01-10T08:23:18.125Z,67.50
2019-01-10T08:24:18.262Z,67.50
2019-01-10T08:25:18.403Z,67.50
2019-01-10T08:26:18.566Z,61.88
2019-01-10T08:27:18.693Z,73.12
2019-01-10T08:28:18.871Z,78.75
2019-01-10T08:29:18.951Z,73.12
2019-01-10T08:30:19.112Z,73.12
2019-01-10T08:31:19.271Z,78.75
2019-01-10T08:32:19.398Z,78.75
2019-01-10T08:33:19.550Z,73.12
2019-01-10T08:34:19.666Z,56.25
2019-01-10T08:35:19.820Z,50.62
2019-01-10T08:36:20.272Z,45.00
2019-01-10T08:37:20.161Z,56.25
2019-01-10T08:38:20.246Z,61.88
2019-01-10T08:39:20.376Z,61.88
2019-01-10T08:40:20.500Z,61.88
2019-01-10T08:41:20.693Z,67.50
2019-01-10T08:42:20.817Z,67.50
2019-01-10T08:43:20.941Z,67.50
2019-01-10T08:44:21.108Z,61.88
2019-01-10T08:45:22.075Z,67.50
2019-01-10T08:46:21.356Z,73.12
2019-01-10T08:47:21.504Z,73.12
2019-01-10T08:48:21.629Z,61.88
2019-01-10T08:49:21.757Z,61.88
2019-01-10T08:50:21.874Z,67.50
2019-01-10T08:51:22.029Z,61.88
2019-01-10T08:52:22.196Z,67.50
2019-01-10T08:53:22.430Z,67.50
2019-01-10T08:54:22.441Z,73.12
2019-01-10T08:55:22.565Z,67.50
2019-01-10T08:56:22.734Z,84.38
2019-01-10T08:57:23.131Z,84.38
2019-01-10T08:58:24.569Z,95.62
2019-01-10T08:59:23.146Z,95.62
2019-01-10T09:00:23.287Z,95.62
2019-01-10T09:01:23.459Z,101.25
2019-01-10T09:02:23.555Z,112.50
2019-01-10T09:03:23.730Z,123.75
2019-01-10T09:04:23.841Z,129.38
2019-01-10T09:05:23.979Z,129.38
2019-01-10T09:06:24.137Z,129.38
2019-01-10T09:07:24.280Z,135.00
2019-01-10T09:08:24.418Z,123.75
2019-01-10T09:09:24.567Z,135.00
2019-01-10T09:10:24.647Z,129.38
2019-01-10T09:11:24.817Z,129.38
2019-01-10T09:12:24.941Z,135.00
2019-01-10T09:13:25.088Z,140.62
2019-01-10T09:14:25.199Z,146.25
2019-01-10T09:15:33.943Z,157.50
2019-01-10T09:16:26.508Z,157.50
2019-01-10T09:17:25.675Z,151.88
2019-01-10T09:18:25.866Z,157.50
2019-01-10T09:19:25.930Z,157.50
2019-01-10T09:20:26.086Z,157.50
2019-01-10T09:21:26.242Z,151.88
2019-01-10T09:22:26.388Z,151.88
2019-01-10T09:23:26.545Z,151.88
2019-01-10T09:24:26.624Z,163.12
2019-01-10T09:25:26.766Z,157.50
2019-01-10T09:26:27.980Z,135.00
2019-01-10T09:27:28.047Z,146.25
2019-01-10T09:28:27.220Z,157.50
2019-01-10T09:29:27.313Z,157.50
2019-01-10T09:30:27.477Z,157.50
2019-01-10T09:31:27.635Z,163.12
2019-01-10T09:32:27.751Z,163.12
2019-01-10T09:33:27.915Z,168.75
2019-01-10T09:34:28.080Z,191.25
2019-01-10T09:35:28.171Z,213.75
2019-01-10T09:36:28.350Z,230.62
2019-01-10T09:37:28.481Z,225.00
2019-01-10T09:38:28.630Z,213.75
2019-01-10T09:39:28.774Z,225.00
2019-01-10T09:40:28.884Z,208.12
2019-01-10T09:41:29.021Z,191.25
2019-01-10T09:42:29.235Z,174.38
2019-01-10T09:43:29.298Z,191.25
2019-01-10T09:44:29.435Z,174.38
2019-01-10T09:45:29.551Z,185.62
2019-01-10T09:46:29.707Z,185.62
2019-01-10T09:47:29.823Z,208.12
2019-01-10T09:48:30.458Z,191.25
2019-01-10T09:49:30.132Z,163.12
2019-01-10T09:50:30.350Z,163.12
2019-01-10T09:51:30.437Z,185.62
2019-01-10T09:52:30.510Z,157.50
2019-01-10T09:53:30.691Z,151.88
2019-01-10T09:54:30.821Z,157.50
2019-01-10T09:55:30.941Z,140.62
2019-01-10T09:56:31.097Z,129.38
2019-01-10T09:57:32.099Z,129.38
2019-01-10T09:58:31.474Z,123.75
2019-01-10T09:59:31.636Z,118.12
2019-01-10T10:00:31.630Z,123.75
2019-01-10T10:01:31.783Z,129.38
2019-01-10T10:02:31.904Z,129.38
2019-01-10T10:03:32.032Z,129.38
2019-01-10T10:04:32.210Z,129.38
2019-01-10T10:05:32.317Z,123.75
2019-01-10T10:06:32.472Z,112.50
2019-01-10T10:07:32.718Z,112.50
2019-01-10T10:08:32.736Z,129.38
2019-01-10T10:09:32.883Z,157.50
2019-01-10T10:10:33.005Z,129.38
2019-01-10T10:11:34.263Z,123.75
2019-01-10T10:12:33.284Z,151.88
2019-01-10T10:13:33.449Z,163.12
2019-01-10T10:14:33.781Z,180.00
2019-01-10T10:15:33.740Z,196.88
2019-01-10T10:16:33.848Z,208.12
2019-01-10T10:17:33.977Z,202.50
2019-01-10T10:18:34.142Z,219.38
2019-01-10T10:19:34.275Z,219.38
2019-01-10T10:20:34.375Z,225.00
2019-01-10T10:21:34.543Z,225.00
2019-01-10T10:22:34.674Z,225.00
2019-01-10T10:23:34.879Z,213.75
2019-01-10T10:24:34.967Z,219.38
2019-01-10T10:25:35.100Z,213.75
2019-01-10T10:26:35.238Z,196.88
2019-01-10T10:27:35.372Z,191.25
2019-01-10T10:28:35.536Z,191.25
2019-01-10T10:29:35.666Z,191.25
2019-01-10T10:30:35.788Z,180.00
2019-01-10T10:31:35.939Z,174.38
2019-01-10T10:32:36.162Z,163.12
2019-01-10T10:33:36.261Z,157.50
2019-01-10T10:34:36.389Z,163.12
2019-01-10T10:35:36.508Z,163.12
2019-01-10T10:36:36.648Z,163.12
2019-01-10T10:37:36.786Z,157.50
2019-01-10T10:38:36.968Z,157.50
2019-01-10T10:39:37.091Z,157.50
2019-01-10T10:40:37.352Z,157.50
2019-01-10T10:41:37.330Z,163.12
2019-01-10T10:42:37.508Z,174.38
2019-01-10T10:43:37.695Z,185.62
2019-01-10T10:44:37.824Z,208.12
2019-01-10T10:45:37.943Z,225.00
2019-01-10T10:46:38.074Z,225.00
2019-01-10T10:47:38.237Z,219.38
2019-01-10T10:48:38.435Z,253.12
2019-01-10T10:49:38.497Z,275.62
2019-01-10T10:50:38.624Z,236.25
2019-01-10T10:51:38.756Z,225.00
2019-01-10T10:52:38.917Z,219.38
2019-01-10T10:53:39.046Z,219.38
2019-01-10T10:54:39.193Z,196.88
2019-01-10T10:55:39.329Z,219.38
2019-01-10T10:56:39.527Z,219.38
2019-01-10T10:57:39.607Z,230.62
2019-01-10T10:58:39.738Z,225.00
2019-01-10T10:59:39.866Z,241.88
2019-01-10T11:00:40.009Z,230.62
2019-01-10T11:01:40.166Z,253.12
2019-01-10T11:02:40.323Z,275.62
2019-01-10T11:03:40.468Z,247.50
2019-01-10T11:04:40.618Z,225.00
2019-01-10T11:05:45.600Z,202.50
2019-01-10T11:06:40.858Z,196.88
2019-01-10T11:07:41.015Z,196.88
2019-01-10T11:08:41.158Z,213.75
2019-01-10T11:09:41.293Z,275.62
2019-01-10T11:10:41.394Z,247.50
2019-01-10T11:11:41.549Z,247.50
2019-01-10T11:12:41.734Z,264.38
2019-01-10T11:13:41.979Z,230.62
2019-01-10T11:14:41.995Z,236.25
2019-01-10T11:15:42.764Z,230.62
2019-01-10T11:16:42.253Z,230.62
2019-01-10T11:17:42.408Z,174.38
2019-01-10T11:18:42.551Z,163.12
2019-01-10T11:19:42.685Z,168.75
2019-01-10T11:20:42.807Z,163.12
2019-01-10T11:21:43.058Z,157.50
2019-01-10T11:22:43.088Z,157.50
2019-01-10T11:23:43.240Z,168.75
2019-01-10T11:24:43.362Z,168.75
2019-01-10T11:25:43.484Z,185.62
2019-01-10T11:26:43.623Z,208.12
2019-01-10T11:27:43.766Z,230.62
2019-01-10T11:28:44.007Z,253.12
2019-01-10T11:29:44.169Z,247.50
2019-01-10T11:30:44.240Z,225.00
2019-01-10T11:31:44.385Z,264.38
2019-01-10T11:32:44.544Z,258.75
2019-01-10T11:33:44.657Z,241.88
2019-01-10T11:34:44.797Z,230.62
2019-01-10T11:35:44.975Z,230.62
2019-01-10T11:36:45.070Z,225.00
2019-01-10T11:37:45.303Z,213.75
2019-01-10T11:38:45.392Z,185.62
2019-01-10T11:39:45.501Z,174.38
2019-01-10T11:40:45.653Z,174.38
2019-01-10T11:41:45.792Z,174.38
2019-01-10T11:42:45.942Z,163.12
2019-01-10T11:43:46.080Z,168.75
2019-01-10T11:44:46.195Z,168.75
2019-01-10T11:45:46.376Z,174.38
2019-01-10T11:46:46.625Z,191.25
2019-01-10T11:47:46.684Z,202.50
2019-01-10T11:48:46.814Z,168.75
2019-01-10T11:49:46.940Z,163.12
2019-01-10T11:50:47.080Z,168.75
2019-01-10T11:51:47.205Z,185.62
2019-01-10T11:52:47.585Z,191.25
2019-01-10T11:53:47.477Z,196.88
2019-01-10T11:54:49.882Z,213.75
2019-01-10T11:55:47.769Z,270.00
2019-01-10T11:56:47.897Z,264.38
2019-01-10T11:57:48.053Z,286.88
2019-01-10T11:58:48.175Z,258.75
2019-01-10T11:59:48.339Z,236.25
2019-01-10T12:00:48.455Z,236.25
2019-01-10T12:01:48.590Z,213.75
2019-01-10T12:02:48.822Z,219.38
2019-01-10T12:03:48.871Z,219.38
2019-01-10T12:04:49.042Z,213.75
2019-01-10T12:05:52.793Z,213.75
2019-01-10T12:06:49.271Z,236.25
2019-01-10T12:07:49.445Z,230.62
2019-01-10T12:08:49.567Z,247.50
2019-01-10T12:09:49.716Z,236.25
2019-01-10T12:10:49.933Z,225.00
2019-01-10T12:11:49.957Z,230.62
2019-01-10T12:12:50.164Z,236.25
2019-01-10T12:13:50.245Z,230.62
2019-01-10T12:14:50.405Z,219.38
2019-01-10T12:15:50.545Z,219.38
2019-01-10T12:16:50.667Z,219.38
2019-01-10T12:17:50.823Z,247.50
2019-01-10T12:18:59.018Z,264.38
2019-01-10T12:19:52.153Z,281.25
2019-01-10T12:20:51.238Z,253.12
2019-01-10T12:21:51.356Z,258.75
2019-01-10T12:22:51.517Z,303.75
2019-01-10T12:23:51.620Z,292.50
2019-01-10T12:24:51.798Z,247.50
2019-01-10T12:25:51.927Z,236.25
2019-01-10T12:26:52.091Z,241.88
2019-01-10T12:27:52.351Z,213.75
2019-01-10T12:28:52.307Z,180.00
2019-01-10T12:29:52.483Z,174.38
2019-01-10T12:30:52.613Z,185.62
2019-01-10T12:31:52.735Z,185.62
2019-01-10T12:32:52.895Z,185.62
2019-01-10T12:33:53.026Z,180.00
2019-01-10T12:34:53.173Z,191.25
2019-01-10T12:35:53.396Z,191.25
2019-01-10T12:37:00.265Z,180.00
2019-01-10T12:37:54.595Z,180.00
2019-01-10T12:38:53.718Z,196.88
2019-01-10T12:39:53.859Z,196.88
2019-01-10T12:40:54.010Z,185.62
2019-01-10T12:41:54.147Z,185.62
2019-01-10T12:42:54.286Z,185.62
2019-01-10T12:43:54.491Z,185.62
2019-01-10T12:44:54.556Z,185.62
2019-01-10T12:45:54.697Z,191.25
2019-01-10T12:46:54.975Z,202.50
2019-01-10T12:47:54.973Z,202.50
2019-01-10T12:48:55.602Z,196.88
2019-01-10T12:49:55.270Z,196.88
2019-01-10T12:50:55.430Z,208.12
2019-01-10T12:51:55.681Z,196.88
2019-01-10T12:52:56.053Z,174.38
2019-01-10T12:53:55.853Z,174.38
2019-01-10T12:54:55.972Z,180.00
2019-01-10T12:55:56.126Z,191.25
2019-01-10T12:56:57.377Z,191.25
2019-01-10T12:57:56.368Z,202.50
2019-01-10T12:58:56.884Z,213.75
2019-01-10T12:59:56.693Z,225.00
2019-01-10T13:00:56.965Z,219.38
2019-01-10T13:01:57.291Z,202.50